sensor_id;sensor_type;location;lat;lon;timestamp;temperature;humidity
78516;SHT31;67815;51.990;5.688;2023-05-10T00:01:50;16.7;73.2
78516;SHT31;67815;51.990;5.688;2023-05-10T00:04:20;16.7;73.2
78516;SHT31;67815;51.990;5.688;2023-05-10T00:06:50;16.7;73.2
78516;SHT31;67815;51.990;5.688;2023-05-10T00:09:20;16.7;73.1
78516;SHT31;67815;51.990;5.688;2023-05-10T00:11:50;16.7;73.2
78516;SHT31;67815;51.990;5.688;2023-05-10T00:14:19;16.7;73.3
78516;SHT31;67815;51.990;5.688;2023-05-10T00:16:49;16.7;73.2
78516;SHT31;67815;51.990;5.688;2023-05-10T00:19:19;16.7;73.3
78516;SHT31;67815;51.990;5.688;2023-05-10T00:21:48;16.7;73.2
78516;SHT31;67815;51.990;5.688;2023-05-10T00:24:18;16.7;73.4
78516;SHT31;67815;51.990;5.688;2023-05-10T00:26:48;16.7;73.3
78516;SHT31;67815;51.990;5.688;2023-05-10T00:29:17;16.7;73.2
78516;SHT31;67815;51.990;5.688;2023-05-10T00:31:47;16.7;73.3
78516;SHT31;67815;51.990;5.688;2023-05-10T00:34:18;16.7;73.3
78516;SHT31;67815;51.990;5.688;2023-05-10T00:36:48;16.7;73.2
78516;SHT31;67815;51.990;5.688;2023-05-10T00:39:17;16.7;73.2
78516;SHT31;67815;51.990;5.688;2023-05-10T00:41:49;16.7;73.2
78516;SHT31;67815;51.990;5.688;2023-05-10T00:44:19;16.7;73.3
78516;SHT31;67815;51.990;5.688;2023-05-10T00:46:49;16.7;73.3
78516;SHT31;67815;51.990;5.688;2023-05-10T00:49:19;16.7;73.3
78516;SHT31;67815;51.990;5.688;2023-05-10T00:51:50;16.7;73.2
78516;SHT31;67815;51.990;5.688;2023-05-10T00:54:20;16.7;73.5
78516;SHT31;67815;51.990;5.688;2023-05-10T00:56:51;16.7;73.4
78516;SHT31;67815;51.990;5.688;2023-05-10T00:59:21;16.7;73.5
78516;SHT31;67815;51.990;5.688;2023-05-10T01:01:52;16.7;73.5
78516;SHT31;67815;51.990;5.688;2023-05-10T01:04:22;16.7;73.7
78516;SHT31;67815;51.990;5.688;2023-05-10T01:06:53;16.7;73.6
78516;SHT31;67815;51.990;5.688;2023-05-10T01:09:24;16.7;73.7
78516;SHT31;67815;51.990;5.688;2023-05-10T01:11:56;16.7;73.9
78516;SHT31;67815;51.990;5.688;2023-05-10T01:14:26;16.7;74.1
78516;SHT31;67815;51.990;5.688;2023-05-10T01:16:57;16.7;74.0
78516;SHT31;67815;51.990;5.688;2023-05-10T01:19:29;16.7;74.1
78516;SHT31;67815;51.990;5.688;2023-05-10T01:22:10;16.7;74.1
78516;SHT31;67815;51.990;5.688;2023-05-10T01:25:35;16.7;74.2
78516;SHT31;67815;51.990;5.688;2023-05-10T01:28:25;16.7;74.4
78516;SHT31;67815;51.990;5.688;2023-05-10T01:31:11;16.7;74.2
78516;SHT31;67815;51.990;5.688;2023-05-10T01:33:47;16.7;74.3
78516;SHT31;67815;51.990;5.688;2023-05-10T01:36:26;16.7;74.5
78516;SHT31;67815;51.990;5.688;2023-05-10T01:39:04;16.7;74.4
78516;SHT31;67815;51.990;5.688;2023-05-10T01:41:44;16.7;74.5
78516;SHT31;67815;51.990;5.688;2023-05-10T01:44:28;16.6;74.5
78516;SHT31;67815;51.990;5.688;2023-05-10T01:47:07;16.6;74.5
78516;SHT31;67815;51.990;5.688;2023-05-10T01:49:43;16.6;74.6
78516;SHT31;67815;51.990;5.688;2023-05-10T01:52:16;16.6;74.3
78516;SHT31;67815;51.990;5.688;2023-05-10T01:54:55;16.6;74.7
78516;SHT31;67815;51.990;5.688;2023-05-10T01:57:31;16.6;74.6
78516;SHT31;67815;51.990;5.688;2023-05-10T02:00:04;16.6;74.5
78516;SHT31;67815;51.990;5.688;2023-05-10T02:02:44;16.6;74.6
78516;SHT31;67815;51.990;5.688;2023-05-10T02:05:16;16.6;74.5
78516;SHT31;67815;51.990;5.688;2023-05-10T02:07:48;16.6;74.5
78516;SHT31;67815;51.990;5.688;2023-05-10T02:10:20;16.6;74.6
78516;SHT31;67815;51.990;5.688;2023-05-10T02:12:55;16.6;75.0
78516;SHT31;67815;51.990;5.688;2023-05-10T02:15:28;16.6;74.8
78516;SHT31;67815;51.990;5.688;2023-05-10T02:18:00;16.6;74.6
78516;SHT31;67815;51.990;5.688;2023-05-10T02:20:35;16.6;74.5
78516;SHT31;67815;51.990;5.688;2023-05-10T02:23:09;16.6;74.3
78516;SHT31;67815;51.990;5.688;2023-05-10T02:25:40;16.6;74.7
78516;SHT31;67815;51.990;5.688;2023-05-10T02:28:12;16.6;74.6
78516;SHT31;67815;51.990;5.688;2023-05-10T02:30:45;16.5;74.7
78516;SHT31;67815;51.990;5.688;2023-05-10T02:33:18;16.5;74.4
78516;SHT31;67815;51.990;5.688;2023-05-10T02:35:50;16.5;74.5
78516;SHT31;67815;51.990;5.688;2023-05-10T02:38:22;16.5;74.2
78516;SHT31;67815;51.990;5.688;2023-05-10T02:40:55;16.5;74.2
78516;SHT31;67815;51.990;5.688;2023-05-10T02:43:26;16.5;74.2
78516;SHT31;67815;51.990;5.688;2023-05-10T02:45:58;16.5;74.6
78516;SHT31;67815;51.990;5.688;2023-05-10T02:48:30;16.5;74.2
78516;SHT31;67815;51.990;5.688;2023-05-10T02:51:08;16.5;74.5
78516;SHT31;67815;51.990;5.688;2023-05-10T02:53:43;16.5;74.1
78516;SHT31;67815;51.990;5.688;2023-05-10T02:56:23;16.5;73.9
78516;SHT31;67815;51.990;5.688;2023-05-10T02:58:55;16.4;74.2
78516;SHT31;67815;51.990;5.688;2023-05-10T03:01:27;16.4;74.4
78516;SHT31;67815;51.990;5.688;2023-05-10T03:03:57;16.4;74.0
78516;SHT31;67815;51.990;5.688;2023-05-10T03:06:27;16.4;74.3
78516;SHT31;67815;51.990;5.688;2023-05-10T03:08:57;16.4;74.2
78516;SHT31;67815;51.990;5.688;2023-05-10T03:11:39;16.4;73.9
78516;SHT31;67815;51.990;5.688;2023-05-10T03:14:29;16.4;73.9
78516;SHT31;67815;51.990;5.688;2023-05-10T03:17:09;16.4;73.7
78516;SHT31;67815;51.990;5.688;2023-05-10T03:19:44;16.4;73.7
78516;SHT31;67815;51.990;5.688;2023-05-10T03:22:23;16.4;73.6
78516;SHT31;67815;51.990;5.688;2023-05-10T03:24:56;16.4;73.3
78516;SHT31;67815;51.990;5.688;2023-05-10T03:27:28;16.4;73.4
78516;SHT31;67815;51.990;5.688;2023-05-10T03:30:00;16.4;72.9
78516;SHT31;67815;51.990;5.688;2023-05-10T03:32:31;16.3;72.8
78516;SHT31;67815;51.990;5.688;2023-05-10T03:35:06;16.3;73.4
78516;SHT31;67815;51.990;5.688;2023-05-10T03:37:36;16.3;73.5
78516;SHT31;67815;51.990;5.688;2023-05-10T03:40:06;16.3;73.8
78516;SHT31;67815;51.990;5.688;2023-05-10T03:42:37;16.3;73.4
78516;SHT31;67815;51.990;5.688;2023-05-10T03:45:07;16.3;73.5
78516;SHT31;67815;51.990;5.688;2023-05-10T03:47:37;16.3;73.4
78516;SHT31;67815;51.990;5.688;2023-05-10T03:50:09;16.3;73.1
78516;SHT31;67815;51.990;5.688;2023-05-10T03:52:39;16.3;73.4
78516;SHT31;67815;51.990;5.688;2023-05-10T03:55:09;16.2;73.8
78516;SHT31;67815;51.990;5.688;2023-05-10T03:57:39;16.2;73.7
78516;SHT31;67815;51.990;5.688;2023-05-10T04:00:10;16.2;73.9
78516;SHT31;67815;51.990;5.688;2023-05-10T04:02:40;16.2;73.9
78516;SHT31;67815;51.990;5.688;2023-05-10T04:05:11;16.2;73.9
78516;SHT31;67815;51.990;5.688;2023-05-10T04:07:40;16.2;74.1
78516;SHT31;67815;51.990;5.688;2023-05-10T04:10:12;16.1;74.3
78516;SHT31;67815;51.990;5.688;2023-05-10T04:12:45;16.1;74.1
78516;SHT31;67815;51.990;5.688;2023-05-10T04:15:15;16.1;74.3
78516;SHT31;67815;51.990;5.688;2023-05-10T04:17:46;16.1;74.4
78516;SHT31;67815;51.990;5.688;2023-05-10T04:20:16;16.1;74.1
78516;SHT31;67815;51.990;5.688;2023-05-10T04:22:46;16.0;74.4
78516;SHT31;67815;51.990;5.688;2023-05-10T04:25:15;16.0;74.7
78516;SHT31;67815;51.990;5.688;2023-05-10T04:27:45;16.0;74.4
78516;SHT31;67815;51.990;5.688;2023-05-10T04:30:17;16.0;74.5
78516;SHT31;67815;51.990;5.688;2023-05-10T04:32:46;16.0;74.3
78516;SHT31;67815;51.990;5.688;2023-05-10T04:35:17;16.0;74.1
78516;SHT31;67815;51.990;5.688;2023-05-10T04:37:46;16.0;74.5
78516;SHT31;67815;51.990;5.688;2023-05-10T04:40:17;16.0;74.2
78516;SHT31;67815;51.990;5.688;2023-05-10T04:42:49;16.0;74.5
78516;SHT31;67815;51.990;5.688;2023-05-10T04:45:19;16.0;74.3
78516;SHT31;67815;51.990;5.688;2023-05-10T04:47:49;16.0;73.9
78516;SHT31;67815;51.990;5.688;2023-05-10T04:50:19;16.0;74.0
78516;SHT31;67815;51.990;5.688;2023-05-10T04:52:48;16.0;73.7
78516;SHT31;67815;51.990;5.688;2023-05-10T04:55:19;16.0;74.2
78516;SHT31;67815;51.990;5.688;2023-05-10T04:57:48;16.0;74.3
78516;SHT31;67815;51.990;5.688;2023-05-10T05:00:23;16.0;74.0
78516;SHT31;67815;51.990;5.688;2023-05-10T05:02:52;16.0;73.9
78516;SHT31;67815;51.990;5.688;2023-05-10T05:05:22;16.0;74.3
78516;SHT31;67815;51.990;5.688;2023-05-10T05:07:51;16.0;74.8
78516;SHT31;67815;51.990;5.688;2023-05-10T05:10:21;16.0;75.2
78516;SHT31;67815;51.990;5.688;2023-05-10T05:12:50;16.0;74.8
78516;SHT31;67815;51.990;5.688;2023-05-10T05:15:20;16.0;74.9
78516;SHT31;67815;51.990;5.688;2023-05-10T05:17:50;16.0;74.9
78516;SHT31;67815;51.990;5.688;2023-05-10T05:20:20;16.0;74.9
78516;SHT31;67815;51.990;5.688;2023-05-10T05:22:50;16.0;75.2
78516;SHT31;67815;51.990;5.688;2023-05-10T05:25:20;16.0;75.2
78516;SHT31;67815;51.990;5.688;2023-05-10T05:27:50;16.0;74.9
78516;SHT31;67815;51.990;5.688;2023-05-10T05:30:19;16.1;74.6
78516;SHT31;67815;51.990;5.688;2023-05-10T05:32:49;16.1;74.7
78516;SHT31;67815;51.990;5.688;2023-05-10T05:35:18;16.1;75.1
78516;SHT31;67815;51.990;5.688;2023-05-10T05:37:48;16.1;75.1
78516;SHT31;67815;51.990;5.688;2023-05-10T05:40:19;16.1;74.7
78516;SHT31;67815;51.990;5.688;2023-05-10T05:42:49;16.1;74.5
78516;SHT31;67815;51.990;5.688;2023-05-10T05:45:19;16.1;74.6
78516;SHT31;67815;51.990;5.688;2023-05-10T05:47:49;16.1;74.5
78516;SHT31;67815;51.990;5.688;2023-05-10T05:50:19;16.1;74.7
78516;SHT31;67815;51.990;5.688;2023-05-10T05:52:49;16.1;74.4
78516;SHT31;67815;51.990;5.688;2023-05-10T05:55:19;16.1;74.6
78516;SHT31;67815;51.990;5.688;2023-05-10T05:57:48;16.1;74.7
78516;SHT31;67815;51.990;5.688;2023-05-10T06:00:18;16.1;74.7
78516;SHT31;67815;51.990;5.688;2023-05-10T06:02:48;16.1;74.6
78516;SHT31;67815;51.990;5.688;2023-05-10T06:05:19;16.1;74.7
78516;SHT31;67815;51.990;5.688;2023-05-10T06:07:48;16.1;74.8
78516;SHT31;67815;51.990;5.688;2023-05-10T06:10:18;16.0;75.0
78516;SHT31;67815;51.990;5.688;2023-05-10T06:12:48;16.0;74.9
78516;SHT31;67815;51.990;5.688;2023-05-10T06:15:18;16.0;74.9
78516;SHT31;67815;51.990;5.688;2023-05-10T06:17:48;16.0;75.2
78516;SHT31;67815;51.990;5.688;2023-05-10T06:20:21;16.0;75.3
78516;SHT31;67815;51.990;5.688;2023-05-10T06:22:51;16.0;75.6
78516;SHT31;67815;51.990;5.688;2023-05-10T06:25:20;16.0;75.4
78516;SHT31;67815;51.990;5.688;2023-05-10T06:27:50;16.0;75.9
78516;SHT31;67815;51.990;5.688;2023-05-10T06:30:25;16.0;75.9
78516;SHT31;67815;51.990;5.688;2023-05-10T06:32:57;16.0;75.6
78516;SHT31;67815;51.990;5.688;2023-05-10T06:35:28;16.0;76.0
78516;SHT31;67815;51.990;5.688;2023-05-10T06:37:59;16.0;75.7
78516;SHT31;67815;51.990;5.688;2023-05-10T06:40:29;16.0;76.3
78516;SHT31;67815;51.990;5.688;2023-05-10T06:42:58;16.0;76.5
78516;SHT31;67815;51.990;5.688;2023-05-10T06:45:28;16.0;76.8
78516;SHT31;67815;51.990;5.688;2023-05-10T06:47:57;16.0;76.0
78516;SHT31;67815;51.990;5.688;2023-05-10T06:50:27;16.0;76.2
78516;SHT31;67815;51.990;5.688;2023-05-10T06:52:57;16.0;76.3
78516;SHT31;67815;51.990;5.688;2023-05-10T06:55:26;16.0;76.6
78516;SHT31;67815;51.990;5.688;2023-05-10T06:57:56;15.9;76.2
78516;SHT31;67815;51.990;5.688;2023-05-10T07:00:26;15.9;76.2
78516;SHT31;67815;51.990;5.688;2023-05-10T07:02:56;15.9;76.8
78516;SHT31;67815;51.990;5.688;2023-05-10T07:05:25;15.9;76.7
78516;SHT31;67815;51.990;5.688;2023-05-10T07:07:57;15.9;76.7
78516;SHT31;67815;51.990;5.688;2023-05-10T07:10:27;16.0;76.6
78516;SHT31;67815;51.990;5.688;2023-05-10T07:12:57;16.0;76.2
78516;SHT31;67815;51.990;5.688;2023-05-10T07:15:28;16.0;76.3
78516;SHT31;67815;51.990;5.688;2023-05-10T07:17:58;16.0;76.2
78516;SHT31;67815;51.990;5.688;2023-05-10T07:20:27;16.0;76.3
78516;SHT31;67815;51.990;5.688;2023-05-10T07:22:57;16.0;76.4
78516;SHT31;67815;51.990;5.688;2023-05-10T07:25:27;16.1;75.9
78516;SHT31;67815;51.990;5.688;2023-05-10T07:27:56;16.1;76.0
78516;SHT31;67815;51.990;5.688;2023-05-10T07:30:27;16.1;75.7
78516;SHT31;67815;51.990;5.688;2023-05-10T07:32:58;16.1;75.8
78516;SHT31;67815;51.990;5.688;2023-05-10T07:35:28;16.1;75.6
78516;SHT31;67815;51.990;5.688;2023-05-10T07:38:00;16.1;75.8
78516;SHT31;67815;51.990;5.688;2023-05-10T07:40:30;16.1;75.7
78516;SHT31;67815;51.990;5.688;2023-05-10T07:42:59;16.1;75.9
78516;SHT31;67815;51.990;5.688;2023-05-10T07:45:30;16.1;76.3
78516;SHT31;67815;51.990;5.688;2023-05-10T07:47:59;16.1;76.0
78516;SHT31;67815;51.990;5.688;2023-05-10T07:50:29;16.1;75.8
78516;SHT31;67815;51.990;5.688;2023-05-10T07:52:59;16.1;76.7
78516;SHT31;67815;51.990;5.688;2023-05-10T07:55:29;16.2;75.7
78516;SHT31;67815;51.990;5.688;2023-05-10T07:57:59;16.2;75.7
78516;SHT31;67815;51.990;5.688;2023-05-10T08:00:32;16.2;74.9
78516;SHT31;67815;51.990;5.688;2023-05-10T08:03:03;16.2;74.9
78516;SHT31;67815;51.990;5.688;2023-05-10T08:05:32;16.2;75.0
78516;SHT31;67815;51.990;5.688;2023-05-10T08:08:02;16.2;74.7
78516;SHT31;67815;51.990;5.688;2023-05-10T08:10:32;16.2;74.2
78516;SHT31;67815;51.990;5.688;2023-05-10T08:13:02;16.2;73.4
78516;SHT31;67815;51.990;5.688;2023-05-10T08:15:32;16.2;74.4
78516;SHT31;67815;51.990;5.688;2023-05-10T08:18:02;16.2;74.7
78516;SHT31;67815;51.990;5.688;2023-05-10T08:20:34;16.2;74.0
78516;SHT31;67815;51.990;5.688;2023-05-10T08:23:04;16.2;73.2
78516;SHT31;67815;51.990;5.688;2023-05-10T08:25:35;16.2;72.7
78516;SHT31;67815;51.990;5.688;2023-05-10T08:28:05;16.2;73.1
78516;SHT31;67815;51.990;5.688;2023-05-10T08:30:36;16.2;73.2
78516;SHT31;67815;51.990;5.688;2023-05-10T08:33:07;16.2;73.1
78516;SHT31;67815;51.990;5.688;2023-05-10T08:35:37;16.1;73.1
78516;SHT31;67815;51.990;5.688;2023-05-10T08:38:09;16.1;73.8
78516;SHT31;67815;51.990;5.688;2023-05-10T08:40:42;16.1;73.5
78516;SHT31;67815;51.990;5.688;2023-05-10T08:43:13;16.1;73.5
78516;SHT31;67815;51.990;5.688;2023-05-10T08:45:45;16.1;72.2
78516;SHT31;67815;51.990;5.688;2023-05-10T08:48:15;16.1;71.8
78516;SHT31;67815;51.990;5.688;2023-05-10T08:50:47;16.1;73.2
78516;SHT31;67815;51.990;5.688;2023-05-10T08:53:19;16.2;74.4
78516;SHT31;67815;51.990;5.688;2023-05-10T08:55:50;16.2;71.1
78516;SHT31;67815;51.990;5.688;2023-05-10T08:58:20;16.2;73.7
78516;SHT31;67815;51.990;5.688;2023-05-10T09:00:50;16.2;72.5
78516;SHT31;67815;51.990;5.688;2023-05-10T09:03:22;16.2;74.6
78516;SHT31;67815;51.990;5.688;2023-05-10T09:05:52;16.3;73.0
78516;SHT31;67815;51.990;5.688;2023-05-10T09:08:24;16.3;73.0
78516;SHT31;67815;51.990;5.688;2023-05-10T09:10:55;16.3;73.8
78516;SHT31;67815;51.990;5.688;2023-05-10T09:13:27;16.3;73.8
78516;SHT31;67815;51.990;5.688;2023-05-10T09:15:58;16.3;73.0
78516;SHT31;67815;51.990;5.688;2023-05-10T09:18:28;16.4;73.3
78516;SHT31;67815;51.990;5.688;2023-05-10T09:21:00;16.4;73.5
78516;SHT31;67815;51.990;5.688;2023-05-10T09:23:29;16.4;72.1
78516;SHT31;67815;51.990;5.688;2023-05-10T09:26:06;16.5;73.5
78516;SHT31;67815;51.990;5.688;2023-05-10T09:28:51;16.5;73.7
78516;SHT31;67815;51.990;5.688;2023-05-10T09:31:22;16.5;72.8
78516;SHT31;67815;51.990;5.688;2023-05-10T09:33:53;16.5;71.9
78516;SHT31;67815;51.990;5.688;2023-05-10T09:36:23;16.5;73.3
78516;SHT31;67815;51.990;5.688;2023-05-10T09:38:53;16.5;74.1
78516;SHT31;67815;51.990;5.688;2023-05-10T09:41:24;16.5;74.9
78516;SHT31;67815;51.990;5.688;2023-05-10T09:43:56;16.6;71.8
78516;SHT31;67815;51.990;5.688;2023-05-10T09:46:26;16.6;70.7
78516;SHT31;67815;51.990;5.688;2023-05-10T09:48:56;16.6;70.3
78516;SHT31;67815;51.990;5.688;2023-05-10T09:51:25;16.6;71.1
78516;SHT31;67815;51.990;5.688;2023-05-10T09:54:11;16.6;70.8
78516;SHT31;67815;51.990;5.688;2023-05-10T09:56:42;16.6;69.8
78516;SHT31;67815;51.990;5.688;2023-05-10T09:59:12;16.6;71.2
78516;SHT31;67815;51.990;5.688;2023-05-10T10:01:53;16.6;72.5
78516;SHT31;67815;51.990;5.688;2023-05-10T10:04:23;16.7;70.3
78516;SHT31;67815;51.990;5.688;2023-05-10T10:07:04;16.7;71.2
78516;SHT31;67815;51.990;5.688;2023-05-10T10:09:35;16.7;70.5
78516;SHT31;67815;51.990;5.688;2023-05-10T10:12:07;16.7;71.5
78516;SHT31;67815;51.990;5.688;2023-05-10T10:14:38;16.7;71.4
78516;SHT31;67815;51.990;5.688;2023-05-10T10:17:09;16.7;70.0
78516;SHT31;67815;51.990;5.688;2023-05-10T10:19:39;16.8;71.9
78516;SHT31;67815;51.990;5.688;2023-05-10T10:22:09;16.8;70.2
78516;SHT31;67815;51.990;5.688;2023-05-10T10:24:40;16.8;69.5
78516;SHT31;67815;51.990;5.688;2023-05-10T10:27:21;16.8;71.3
78516;SHT31;67815;51.990;5.688;2023-05-10T10:30:04;16.8;71.6
78516;SHT31;67815;51.990;5.688;2023-05-10T10:35:24;16.9;70.8
78516;SHT31;67815;51.990;5.688;2023-05-10T10:37:53;16.9;70.2
78516;SHT31;67815;51.990;5.688;2023-05-10T10:40:29;16.9;69.5
78516;SHT31;67815;51.990;5.688;2023-05-10T10:43:25;17.0;70.7
78516;SHT31;67815;51.990;5.688;2023-05-10T10:46:15;17.0;72.7
78516;SHT31;67815;51.990;5.688;2023-05-10T10:48:50;17.1;71.7
78516;SHT31;67815;51.990;5.688;2023-05-10T10:51:28;17.1;69.0
78516;SHT31;67815;51.990;5.688;2023-05-10T10:54:10;17.1;68.9
78516;SHT31;67815;51.990;5.688;2023-05-10T10:56:40;17.2;69.2
78516;SHT31;67815;51.990;5.688;2023-05-10T10:59:11;17.2;70.6
78516;SHT31;67815;51.990;5.688;2023-05-10T11:01:41;17.2;67.7
78516;SHT31;67815;51.990;5.688;2023-05-10T11:04:23;17.2;67.3
78516;SHT31;67815;51.990;5.688;2023-05-10T11:07:17;17.2;69.1
78516;SHT31;67815;51.990;5.688;2023-05-10T11:09:48;17.2;68.5
78516;SHT31;67815;51.990;5.688;2023-05-10T11:12:19;17.2;67.6
78516;SHT31;67815;51.990;5.688;2023-05-10T11:14:51;17.2;69.2
78516;SHT31;67815;51.990;5.688;2023-05-10T11:17:24;17.2;71.2
78516;SHT31;67815;51.990;5.688;2023-05-10T11:20:10;17.3;71.9
78516;SHT31;67815;51.990;5.688;2023-05-10T11:22:53;17.3;69.1
78516;SHT31;67815;51.990;5.688;2023-05-10T11:25:28;17.3;70.1
78516;SHT31;67815;51.990;5.688;2023-05-10T11:27:57;17.4;68.6
78516;SHT31;67815;51.990;5.688;2023-05-10T11:30:29;17.4;67.8
78516;SHT31;67815;51.990;5.688;2023-05-10T11:33:00;17.4;68.8
78516;SHT31;67815;51.990;5.688;2023-05-10T11:35:29;17.4;68.2
78516;SHT31;67815;51.990;5.688;2023-05-10T11:37:59;17.5;67.2
78516;SHT31;67815;51.990;5.688;2023-05-10T11:40:28;17.5;67.5
78516;SHT31;67815;51.990;5.688;2023-05-10T11:42:58;17.5;68.3
78516;SHT31;67815;51.990;5.688;2023-05-10T11:45:28;17.5;67.7
78516;SHT31;67815;51.990;5.688;2023-05-10T11:48:00;17.5;68.9
78516;SHT31;67815;51.990;5.688;2023-05-10T11:50:30;17.6;67.7
78516;SHT31;67815;51.990;5.688;2023-05-10T11:52:59;17.6;66.9
78516;SHT31;67815;51.990;5.688;2023-05-10T11:55:33;17.6;64.6
78516;SHT31;67815;51.990;5.688;2023-05-10T11:58:03;17.6;66.5
78516;SHT31;67815;51.990;5.688;2023-05-10T12:00:32;17.7;69.4
78516;SHT31;67815;51.990;5.688;2023-05-10T12:03:03;17.7;70.3
78516;SHT31;67815;51.990;5.688;2023-05-10T12:05:34;17.7;68.6
78516;SHT31;67815;51.990;5.688;2023-05-10T12:08:15;17.8;69.4
78516;SHT31;67815;51.990;5.688;2023-05-10T12:10:45;17.8;70.2
78516;SHT31;67815;51.990;5.688;2023-05-10T12:13:16;17.9;69.1
78516;SHT31;67815;51.990;5.688;2023-05-10T12:15:46;17.9;68.1
78516;SHT31;67815;51.990;5.688;2023-05-10T12:18:24;17.9;67.2
78516;SHT31;67815;51.990;5.688;2023-05-10T12:21:04;18.0;67.6
78516;SHT31;67815;51.990;5.688;2023-05-10T12:23:34;18.0;66.0
78516;SHT31;67815;51.990;5.688;2023-05-10T12:26:04;18.0;65.2
78516;SHT31;67815;51.990;5.688;2023-05-10T12:28:34;18.1;63.4
78516;SHT31;67815;51.990;5.688;2023-05-10T12:31:05;18.1;65.1
78516;SHT31;67815;51.990;5.688;2023-05-10T12:33:40;18.1;63.6
78516;SHT31;67815;51.990;5.688;2023-05-10T12:36:12;18.1;64.7
78516;SHT31;67815;51.990;5.688;2023-05-10T12:38:44;18.1;65.6
78516;SHT31;67815;51.990;5.688;2023-05-10T12:41:17;18.2;67.6
78516;SHT31;67815;51.990;5.688;2023-05-10T12:43:47;18.2;65.5
78516;SHT31;67815;51.990;5.688;2023-05-10T12:46:17;18.3;64.5
78516;SHT31;67815;51.990;5.688;2023-05-10T12:48:47;18.3;63.6
78516;SHT31;67815;51.990;5.688;2023-05-10T12:51:21;18.4;66.0
78516;SHT31;67815;51.990;5.688;2023-05-10T12:53:53;18.4;65.5
78516;SHT31;67815;51.990;5.688;2023-05-10T12:56:23;18.5;65.2
78516;SHT31;67815;51.990;5.688;2023-05-10T12:58:53;18.5;67.4
78516;SHT31;67815;51.990;5.688;2023-05-10T13:01:23;18.5;65.6
78516;SHT31;67815;51.990;5.688;2023-05-10T13:03:52;18.6;62.3
78516;SHT31;67815;51.990;5.688;2023-05-10T13:06:23;18.6;62.8
78516;SHT31;67815;51.990;5.688;2023-05-10T13:08:53;18.6;62.0
78516;SHT31;67815;51.990;5.688;2023-05-10T13:11:23;18.6;63.5
78516;SHT31;67815;51.990;5.688;2023-05-10T13:13:53;18.6;63.9
78516;SHT31;67815;51.990;5.688;2023-05-10T13:16:23;18.6;64.4
78516;SHT31;67815;51.990;5.688;2023-05-10T13:18:53;18.6;66.2
78516;SHT31;67815;51.990;5.688;2023-05-10T13:21:22;18.6;65.8
78516;SHT31;67815;51.990;5.688;2023-05-10T13:23:53;18.5;64.6
78516;SHT31;67815;51.990;5.688;2023-05-10T13:26:25;18.5;64.7
78516;SHT31;67815;51.990;5.688;2023-05-10T13:28:54;18.5;65.6
78516;SHT31;67815;51.990;5.688;2023-05-10T13:31:25;18.4;67.2
78516;SHT31;67815;51.990;5.688;2023-05-10T13:33:55;18.3;66.9
78516;SHT31;67815;51.990;5.688;2023-05-10T13:36:25;18.2;67.2
78516;SHT31;67815;51.990;5.688;2023-05-10T13:38:54;18.1;68.6
78516;SHT31;67815;51.990;5.688;2023-05-10T13:41:24;18.0;68.9
78516;SHT31;67815;51.990;5.688;2023-05-10T13:43:53;18.0;69.4
78516;SHT31;67815;51.990;5.688;2023-05-10T13:46:23;17.9;69.8
78516;SHT31;67815;51.990;5.688;2023-05-10T13:48:53;17.8;70.2
78516;SHT31;67815;51.990;5.688;2023-05-10T13:51:23;17.8;71.3
78516;SHT31;67815;51.990;5.688;2023-05-10T13:53:53;17.7;71.8
78516;SHT31;67815;51.990;5.688;2023-05-10T13:56:23;17.7;72.0
78516;SHT31;67815;51.990;5.688;2023-05-10T13:58:55;17.6;71.7
78516;SHT31;67815;51.990;5.688;2023-05-10T14:01:25;17.6;70.6
78516;SHT31;67815;51.990;5.688;2023-05-10T14:03:55;17.5;70.2
78516;SHT31;67815;51.990;5.688;2023-05-10T14:06:24;17.5;70.5
78516;SHT31;67815;51.990;5.688;2023-05-10T14:08:54;17.4;70.6
78516;SHT31;67815;51.990;5.688;2023-05-10T14:11:24;17.3;71.1
78516;SHT31;67815;51.990;5.688;2023-05-10T14:13:54;17.3;71.8
78516;SHT31;67815;51.990;5.688;2023-05-10T14:16:24;17.2;71.9
78516;SHT31;67815;51.990;5.688;2023-05-10T14:18:56;17.2;72.5
78516;SHT31;67815;51.990;5.688;2023-05-10T14:21:26;17.2;72.8
78516;SHT31;67815;51.990;5.688;2023-05-10T14:23:56;17.1;73.3
78516;SHT31;67815;51.990;5.688;2023-05-10T14:26:26;17.1;73.0
78516;SHT31;67815;51.990;5.688;2023-05-10T14:28:56;17.1;73.4
78516;SHT31;67815;51.990;5.688;2023-05-10T14:31:26;17.1;73.0
78516;SHT31;67815;51.990;5.688;2023-05-10T14:33:57;17.1;72.9
78516;SHT31;67815;51.990;5.688;2023-05-10T14:36:27;17.1;73.3
78516;SHT31;67815;51.990;5.688;2023-05-10T14:38:57;17.1;72.6
78516;SHT31;67815;51.990;5.688;2023-05-10T14:41:26;17.1;73.3
78516;SHT31;67815;51.990;5.688;2023-05-10T14:43:57;17.0;74.3
78516;SHT31;67815;51.990;5.688;2023-05-10T14:46:27;17.0;74.2
78516;SHT31;67815;51.990;5.688;2023-05-10T14:48:57;17.0;74.3
78516;SHT31;67815;51.990;5.688;2023-05-10T14:51:27;17.0;74.7
78516;SHT31;67815;51.990;5.688;2023-05-10T14:53:57;17.1;74.1
78516;SHT31;67815;51.990;5.688;2023-05-10T14:56:27;17.1;75.3
78516;SHT31;67815;51.990;5.688;2023-05-10T14:58:56;17.1;73.6
78516;SHT31;67815;51.990;5.688;2023-05-10T15:01:26;17.1;75.4
78516;SHT31;67815;51.990;5.688;2023-05-10T15:03:56;17.1;75.2
78516;SHT31;67815;51.990;5.688;2023-05-10T15:06:30;17.2;73.9
78516;SHT31;67815;51.990;5.688;2023-05-10T15:09:02;17.2;74.2
78516;SHT31;67815;51.990;5.688;2023-05-10T15:11:32;17.3;73.3
78516;SHT31;67815;51.990;5.688;2023-05-10T15:14:02;17.3;72.7
78516;SHT31;67815;51.990;5.688;2023-05-10T15:16:34;17.3;72.1
78516;SHT31;67815;51.990;5.688;2023-05-10T15:19:04;17.3;73.5
78516;SHT31;67815;51.990;5.688;2023-05-10T15:21:34;17.3;73.5
78516;SHT31;67815;51.990;5.688;2023-05-10T15:24:07;17.3;73.3
78516;SHT31;67815;51.990;5.688;2023-05-10T15:26:37;17.4;71.9
78516;SHT31;67815;51.990;5.688;2023-05-10T15:29:06;17.4;72.8
78516;SHT31;67815;51.990;5.688;2023-05-10T15:31:37;17.4;75.2
78516;SHT31;67815;51.990;5.688;2023-05-10T15:34:07;17.4;74.5
78516;SHT31;67815;51.990;5.688;2023-05-10T15:36:36;17.4;75.1
78516;SHT31;67815;51.990;5.688;2023-05-10T15:39:06;17.4;74.9
78516;SHT31;67815;51.990;5.688;2023-05-10T15:41:36;17.5;75.2
78516;SHT31;67815;51.990;5.688;2023-05-10T15:44:06;17.5;73.8
78516;SHT31;67815;51.990;5.688;2023-05-10T15:46:35;17.5;72.6
78516;SHT31;67815;51.990;5.688;2023-05-10T15:49:05;17.6;72.2
78516;SHT31;67815;51.990;5.688;2023-05-10T15:51:35;17.6;72.3
78516;SHT31;67815;51.990;5.688;2023-05-10T15:54:07;17.6;72.3
78516;SHT31;67815;51.990;5.688;2023-05-10T15:56:36;17.7;72.6
78516;SHT31;67815;51.990;5.688;2023-05-10T15:59:06;17.7;72.2
78516;SHT31;67815;51.990;5.688;2023-05-10T16:01:40;17.7;73.9
78516;SHT31;67815;51.990;5.688;2023-05-10T16:04:10;17.8;72.0
78516;SHT31;67815;51.990;5.688;2023-05-10T16:06:39;17.8;71.6
78516;SHT31;67815;51.990;5.688;2023-05-10T16:09:09;17.8;73.5
78516;SHT31;67815;51.990;5.688;2023-05-10T16:11:39;17.8;70.9
78516;SHT31;67815;51.990;5.688;2023-05-10T16:14:09;17.8;69.4
78516;SHT31;67815;51.990;5.688;2023-05-10T16:16:40;17.8;70.8
78516;SHT31;67815;51.990;5.688;2023-05-10T16:19:10;17.8;71.7
78516;SHT31;67815;51.990;5.688;2023-05-10T16:21:40;17.8;72.2
78516;SHT31;67815;51.990;5.688;2023-05-10T16:24:12;17.8;72.4
78516;SHT31;67815;51.990;5.688;2023-05-10T16:26:42;17.8;71.4
78516;SHT31;67815;51.990;5.688;2023-05-10T16:29:11;17.8;72.6
78516;SHT31;67815;51.990;5.688;2023-05-10T16:31:41;17.8;73.1
78516;SHT31;67815;51.990;5.688;2023-05-10T16:34:11;17.8;72.8